Time;durP1;ratioP1;P1;durP2;ratioP2;P2;SDS_P1;SDS_P2;PMS_P1;PMS_P2;Temp;Humidity;BMP_temperature;BMP_pressure;BME280_temperature;BME280_humidity;BME280_pressure;Samples;Min_cycle;Max_cycle;Signal;HPM_P1;HPM_P2
2022/03/09 00:02:16;;;;;;;71.45;34.10;;;;;;;1.69;64.96;101342.94;5075042;28;20081;-65
2022/03/09 00:04:41;;;;;;;36.38;18.67;;;;;;;1.69;65.18;101344.66;5075599;28;20032;-65
2022/03/09 00:07:07;;;;;;;25.17;13.13;;;;;;;1.68;65.14;101345.50;5054132;28;20041;-65
2022/03/09 00:09:32;;;;;;;44.90;22.52;;;;;;;1.69;65.45;101348.13;5074239;28;20040;-65
2022/03/09 00:11:58;;;;;;;134.95;59.38;;;;;;;1.64;65.95;101341.91;5074384;28;20086;-65
2022/03/09 00:14:23;;;;;;;79.00;34.28;;;;;;;1.58;66.29;101340.84;5074381;28;20051;-65
2022/03/09 00:16:50;;;;;;;75.03;32.40;;;;;;;1.60;66.20;101346.97;5075246;28;20075;-65
2022/03/09 00:19:16;;;;;;;80.72;35.50;;;;;;;1.59;66.16;101338.28;5073023;28;20040;-65
2022/03/09 00:21:41;;;;;;;61.65;27.90;;;;;;;1.60;66.34;101336.59;5073725;28;20381;-66
2022/03/09 00:24:07;;;;;;;59.53;30.10;;;;;;;1.53;66.57;101332.94;5074890;28;20037;-66
2022/03/09 00:26:32;;;;;;;46.22;22.95;;;;;;;1.49;66.71;101328.50;5075141;28;20085;-66
2022/03/09 00:28:58;;;;;;;47.92;23.63;;;;;;;1.38;67.62;101333.34;5073303;28;20041;-66
2022/03/09 00:31:23;;;;;;;40.55;20.23;;;;;;;1.42;67.45;101336.91;5073101;28;20376;-66
2022/03/09 00:33:49;;;;;;;55.13;25.88;;;;;;;1.38;67.98;101330.75;5073694;28;20425;-66
2022/03/09 00:36:14;;;;;;;53.63;27.17;;;;;;;1.36;67.94;101328.97;5075101;28;20468;-65
2022/03/09 00:38:40;;;;;;;39.90;21.00;;;;;;;1.18;68.85;101330.13;5074083;28;20503;-66
2022/03/09 00:41:05;;;;;;;33.03;17.35;;;;;;;1.14;68.97;101336.06;5072985;28;20491;-66
2022/03/09 00:43:31;;;;;;;33.63;17.45;;;;;;;1.16;69.45;101334.41;5075041;28;20060;-65
2022/03/09 00:45:56;;;;;;;25.05;12.02;;;;;;;1.32;69.26;101335.75;5075127;28;20109;-66
2022/03/09 00:48:22;;;;;;;32.30;15.20;;;;;;;1.39;69.18;101342.00;5074738;28;20119;-66
2022/03/09 00:50:47;;;;;;;25.38;12.25;;;;;;;1.35;69.38;101340.13;5073768;28;20063;-66
2022/03/09 00:53:13;;;;;;;22.70;12.77;;;;;;;1.34;69.42;101339.25;5075350;28;20052;-66
2022/03/09 00:55:39;;;;;;;37.35;19.08;;;;;;;1.30;69.66;101341.72;5074475;28;20043;-66
2022/03/09 00:58:05;;;;;;;21.98;11.90;;;;;;;1.22;69.94;101344.94;5072939;28;20543;-65
2022/03/09 01:00:31;;;;;;;20.15;11.40;;;;;;;1.16;70.93;101352.53;5073963;28;20420;-65
2022/03/09 01:02:57;;;;;;;20.55;11.23;;;;;;;1.22;70.72;101341.47;5070180;28;20044;-67
2022/03/09 01:05:22;;;;;;;23.58;13.15;;;;;;;1.17;71.03;101343.91;5054824;28;20037;-65
2022/03/09 01:07:48;;;;;;;17.45;10.70;;;;;;;1.19;71.37;101342.25;5054701;28;20447;-65
2022/03/09 01:10:13;;;;;;;20.08;10.13;;;;;;;1.20;71.47;101335.38;5068573;28;20037;-66
2022/03/09 01:12:39;;;;;;;19.38;10.25;;;;;;;1.21;71.36;101343.19;5056142;28;20391;-66
2022/03/09 01:15:05;;;;;;;19.10;10.98;;;;;;;1.19;71.78;101344.84;5073768;28;20510;-66
2022/03/09 01:17:31;;;;;;;15.68;9.52;;;;;;;1.17;71.62;101341.34;5073099;28;20036;-66
2022/03/09 01:19:57;;;;;;;17.50;9.52;;;;;;;1.13;71.68;101336.00;5073041;28;20032;-67
2022/03/09 01:22:23;;;;;;;19.45;9.77;;;;;;;1.11;72.26;101346.28;5072981;28;20041;-66
2022/03/09 01:24:48;;;;;;;16.27;9.48;;;;;;;1.11;72.77;101328.19;5073319;28;20033;-66
2022/03/09 01:27:14;;;;;;;19.52;10.27;;;;;;;1.12;72.86;101326.50;5073779;28;20044;-66
2022/03/09 01:29:40;;;;;;;17.38;9.77;;;;;;;1.09;72.71;101327.28;5073573;28;20369;-66
2022/03/09 01:32:06;;;;;;;19.35;11.05;;;;;;;1.08;72.83;101324.63;5073134;28;20460;-66
2022/03/09 01:34:31;;;;;;;18.55;10.55;;;;;;;1.03;72.93;101327.06;5069585;28;20040;-66
2022/03/09 01:36:57;;;;;;;20.17;10.70;;;;;;;0.98;73.46;101328.63;5054696;28;20357;-66
2022/03/09 01:39:23;;;;;;;22.60;11.40;;;;;;;0.95;74.42;101323.34;5056945;28;20422;-66
2022/03/09 01:41:48;;;;;;;20.58;11.23;;;;;;;0.97;74.15;101330.34;5071905;28;20052;-66
2022/03/09 01:44:20;;;;;;;24.17;10.93;;;;;;;0.94;74.46;101324.19;5053954;28;20440;-65
2022/03/09 01:46:48;;;;;;;17.60;10.40;;;;;;;0.88;75.06;101331.75;5057436;28;20028;-66
2022/03/09 01:49:14;;;;;;;22.45;11.27;;;;;;;0.90;74.84;101330.09;5072067;28;20257;-66
2022/03/09 01:51:45;;;;;;;23.17;11.73;;;;;;;0.87;75.43;101330.84;5072504;28;20122;-66
2022/03/09 01:54:12;;;;;;;15.45;8.90;;;;;;;0.89;74.86;101320.56;5072633;28;20021;-66
2022/03/09 01:56:38;;;;;;;24.55;12.95;;;;;;;0.86;75.21;101317.88;5069144;28;20040;-66
2022/03/09 01:59:05;;;;;;;21.58;11.23;;;;;;;0.85;75.60;101326.47;5052738;28;20392;-66
2022/03/09 02:01:31;;;;;;;17.52;10.13;;;;;;;0.81;75.96;101325.50;5052597;28;20029;-66
2022/03/09 02:03:59;;;;;;;20.30;11.88;;;;;;;0.78;76.67;101321.94;5043778;28;20055;-66
2022/03/09 02:06:25;;;;;;;20.65;10.68;;;;;;;0.77;76.17;101323.63;5071985;28;20028;-66
2022/03/09 02:11:37;;;;;;;20.42;11.02;;;;;;;0.68;77.45;101321.63;5074043;28;20376;-66
2022/03/09 02:14:03;;;;;;;22.70;12.60;;;;;;;0.72;77.80;101315.72;5073680;28;20052;-66
2022/03/09 02:16:28;;;;;;;23.50;12.15;;;;;;;0.72;77.63;101320.91;5072511;28;20388;-66
2022/03/09 02:18:54;;;;;;;24.48;12.75;;;;;;;0.70;78.65;101316.50;5073153;28;20468;-66
2022/03/09 02:21:22;;;;;;;22.38;11.70;;;;;;;0.75;77.82;101314.94;5073346;28;20068;-66
2022/03/09 02:23:48;;;;;;;23.73;13.00;;;;;;;0.67;78.90;101314.69;5072747;28;20377;-67
2022/03/09 02:26:13;;;;;;;21.88;11.82;;;;;;;0.68;78.56;101308.69;5073837;28;20044;-67
2022/03/09 02:28:44;;;;;;;24.35;12.63;;;;;;;0.66;78.79;101314.63;5073427;28;20078;-66
2022/03/09 02:31:10;;;;;;;23.27;12.00;;;;;;;0.67;78.77;101317.25;5071766;28;20365;-66
2022/03/09 02:33:35;;;;;;;24.13;12.65;;;;;;;0.59;79.84;101318.72;5073111;28;20119;-66
2022/03/09 02:36:01;;;;;;;22.70;11.93;;;;;;;0.63;79.64;101324.88;5072690;28;20120;-66
2022/03/09 02:38:26;;;;;;;23.30;12.43;;;;;;;0.63;79.37;101325.75;5072490;28;20032;-66
2022/03/09 02:40:51;;;;;;;20.23;10.68;;;;;;;0.64;79.23;101322.34;5075805;28;20039;-66
2022/03/09 02:43:17;;;;;;;22.40;11.68;;;;;;;0.65;79.58;101324.09;5075416;28;20043;-66
2022/03/09 02:45:42;;;;;;;21.00;11.45;;;;;;;0.60;79.45;101328.25;5076523;28;20376;-67
2022/03/09 02:48:08;;;;;;;24.45;12.07;;;;;;;0.64;78.65;101329.22;5076964;28;20091;-66
2022/03/09 02:50:33;;;;;;;18.80;10.25;;;;;;;0.60;78.28;101325.66;5076918;28;20468;-66
2022/03/09 02:52:58;;;;;;;20.08;11.48;;;;;;;0.56;78.88;101334.16;5075682;28;20566;-66
2022/03/09 02:55:24;;;;;;;21.90;11.55;;;;;;;0.51;78.92;101338.25;5076837;28;20086;-66
2022/03/09 02:57:49;;;;;;;27.48;14.02;;;;;;;0.40;79.68;101343.09;5076962;28;20532;-66
2022/03/09 03:00:15;;;;;;;26.23;13.02;;;;;;;0.30;80.86;101350.47;5077102;28;20094;-66
2022/03/09 03:02:40;;;;;;;26.65;13.82;;;;;;;0.24;81.61;101351.13;5077175;28;20067;-66
2022/03/09 03:05:07;;;;;;;28.65;14.38;;;;;;;0.26;81.98;101356.34;5077037;28;20074;-66
2022/03/09 03:07:33;;;;;;;32.65;15.48;;;;;;;0.32;81.87;101354.88;5075111;28;20044;-66
2022/03/09 03:09:58;;;;;;;28.15;11.60;;;;;;;0.35;81.25;101354.94;5075682;28;20048;-66
2022/03/09 03:12:24;;;;;;;34.55;11.95;;;;;;;0.39;81.41;101355.94;5075943;28;20046;-66
2022/03/09 03:14:49;;;;;;;36.58;11.00;;;;;;;0.40;81.58;101356.00;5076713;28;20499;-66
2022/03/09 03:17:14;;;;;;;35.25;12.75;;;;;;;0.35;82.25;101357.53;5071938;28;20037;-66
2022/03/09 03:19:40;;;;;;;36.85;12.57;;;;;;;0.39;81.96;101358.53;5057865;28;20029;-66
2022/03/09 03:22:05;;;;;;;27.08;11.88;;;;;;;0.42;81.84;101356.06;5077249;28;20475;-66
2022/03/09 03:24:31;;;;;;;29.17;13.35;;;;;;;0.42;81.76;101364.69;5076931;28;20072;-66
2022/03/09 03:26:56;;;;;;;29.85;13.20;;;;;;;0.39;82.92;101355.94;5074998;28;20037;-66
2022/03/09 03:29:22;;;;;;;32.10;14.65;;;;;;;0.38;83.09;101369.69;5076616;28;20062;-66
2022/03/09 03:31:47;;;;;;;24.75;12.23;;;;;;;0.36;82.25;101361.00;5076603;28;20048;-66
2022/03/09 03:34:13;;;;;;;26.83;12.60;;;;;;;0.35;83.25;101364.41;5076455;28;20352;-66
2022/03/09 03:36:38;;;;;;;24.00;12.07;;;;;;;0.38;82.87;101362.81;5076268;28;20514;-66
2022/03/09 03:39:04;;;;;;;24.00;11.85;;;;;;;0.39;82.63;101366.28;5076047;28;20060;-66
2022/03/09 03:41:29;;;;;;;25.05;11.32;;;;;;;0.41;82.34;101375.00;5074916;28;20111;-66
2022/03/09 03:43:55;;;;;;;26.00;12.00;;;;;;;0.39;82.24;101367.16;5075728;28;20032;-66
2022/03/09 03:46:20;;;;;;;26.40;12.40;;;;;;;0.34;82.35;101367.84;5075706;28;20426;-66
2022/03/09 03:48:46;;;;;;;30.80;14.73;;;;;;;0.34;82.16;101367.84;5075509;28;20449;-65
2022/03/09 03:51:11;;;;;;;29.17;14.30;;;;;;;0.33;82.44;101379.00;5075910;28;20135;-66
2022/03/09 03:53:37;;;;;;;42.05;21.42;;;;;;;0.33;82.25;101379.00;5075617;28;20527;-65
2022/03/09 03:56:02;;;;;;;32.45;16.63;;;;;;;0.32;82.28;101379.81;5074965;28;20107;-65
2022/03/09 03:58:28;;;;;;;34.35;16.77;;;;;;;0.35;82.23;101379.94;5075711;28;20468;-65
2022/03/09 04:00:53;;;;;;;26.27;12.85;;;;;;;0.36;81.57;101381.69;5075359;28;20166;-65
2022/03/09 04:03:19;;;;;;;22.38;12.18;;;;;;;0.32;81.76;101384.97;5071357;28;20032;-65
2022/03/09 04:05:44;;;;;;;25.17;12.43;;;;;;;0.33;81.78;101384.19;5066541;28;20033;-65
2022/03/09 04:08:09;;;;;;;21.55;11.35;;;;;;;0.31;82.00;101385.81;5075711;28;20060;-66
2022/03/09 04:10:35;;;;;;;29.45;13.68;;;;;;;0.32;81.78;101388.47;5075100;28;20052;-66
2022/03/09 04:13:03;;;;;;;23.70;12.75;;;;;;;0.32;81.76;101390.16;5075413;28;20395;-66
2022/03/09 04:15:32;;;;;;;23.38;11.57;;;;;;;0.31;81.95;101394.44;5073976;28;20365;-66
2022/03/09 04:17:58;;;;;;;31.77;15.23;;;;;;;0.32;82.03;101384.97;5074437;28;20047;-66
2022/03/09 04:20:24;;;;;;;34.22;16.83;;;;;;;0.30;82.27;101390.13;5073932;28;20082;-66
2022/03/09 04:22:50;;;;;;;29.77;14.77;;;;;;;0.36;81.63;101387.75;5075429;28;20055;-66
2022/03/09 04:25:16;;;;;;;21.75;11.85;;;;;;;0.35;82.14;101385.97;5062858;28;20044;-66
2022/03/09 04:27:42;;;;;;;20.63;10.85;;;;;;;0.38;82.35;101383.50;5065690;28;20036;-66
2022/03/09 04:30:09;;;;;;;23.33;11.60;;;;;;;0.41;81.94;101391.38;5078578;28;20074;-66
2022/03/09 04:32:35;;;;;;;22.33;12.80;;;;;;;0.40;81.87;101386.13;5085182;28;20430;-66
2022/03/09 04:35:02;;;;;;;28.83;13.57;;;;;;;0.37;82.08;101386.06;5073678;28;20119;-66
2022/03/09 04:37:30;;;;;;;25.88;13.75;;;;;;;0.40;82.22;101389.63;5070338;28;20112;-66
2022/03/09 04:39:57;;;;;;;23.67;11.75;;;;;;;0.39;82.02;101387.84;5067375;28;20086;-66
2022/03/09 04:42:23;;;;;;;22.70;12.57;;;;;;;0.38;82.13;101395.56;5073968;28;20032;-66
2022/03/09 04:44:48;;;;;;;20.35;10.60;;;;;;;0.36;81.66;101381.69;5075205;28;20033;-66
2022/03/09 04:47:14;;;;;;;23.33;12.75;;;;;;;0.35;82.10;101382.50;5070123;28;20400;-66
2022/03/09 04:49:39;;;;;;;22.88;12.00;;;;;;;0.37;82.03;101380.88;5068726;28;20045;-66
2022/03/09 04:52:05;;;;;;;21.55;11.95;;;;;;;0.34;82.36;101378.19;5063059;28;20056;-65
2022/03/09 04:54:31;;;;;;;26.38;13.48;;;;;;;0.31;83.01;101378.06;5071546;28;20468;-66
2022/03/09 04:56:56;;;;;;;22.45;12.77;;;;;;;0.32;83.08;101382.41;5073056;28;20032;-66
2022/03/09 04:59:21;;;;;;;21.33;11.52;;;;;;;0.29;82.94;101375.44;5072132;28;20062;-66
2022/03/09 05:01:47;;;;;;;21.20;11.95;;;;;;;0.24;83.41;101370.09;5073766;28;20032;-66
2022/03/09 05:04:12;;;;;;;29.10;13.98;;;;;;;0.19;84.37;101371.63;5073675;28;20028;-66
2022/03/09 05:06:38;;;;;;;23.92;12.65;;;;;;;0.20;84.44;101376.00;5073328;28;20056;-66
2022/03/09 05:09:03;;;;;;;25.95;12.75;;;;;;;0.20;84.37;101376.00;5073025;28;20036;-66
2022/03/09 05:11:29;;;;;;;22.35;12.10;;;;;;;0.23;84.60;101380.38;5077899;28;20499;-66
2022/03/09 05:13:54;;;;;;;28.52;14.32;;;;;;;0.27;84.20;101391.69;5072649;28;20095;-66
2022/03/09 05:16:19;;;;;;;28.98;15.23;;;;;;;0.19;84.95;101379.38;5072925;28;20056;-66
2022/03/09 05:18:45;;;;;;;36.10;17.27;;;;;;;0.23;84.63;101381.25;5056188;28;20032;-66
2022/03/09 05:21:10;;;;;;;46.35;21.15;;;;;;;0.27;84.56;101389.13;5064950;28;20036;-66
2022/03/09 05:23:36;;;;;;;42.40;19.40;;;;;;;0.32;84.28;101400.50;5070859;28;20061;-66
2022/03/09 05:26:01;;;;;;;41.45;20.98;;;;;;;0.33;84.21;101397.97;5055444;28;20032;-67
2022/03/09 05:28:27;;;;;;;35.90;18.85;;;;;;;0.32;84.50;101395.31;5073421;28;20040;-66
2022/03/09 05:30:52;;;;;;;35.10;20.50;;;;;;;0.28;85.33;101391.78;5073557;28;20043;-66
2022/03/09 05:33:17;;;;;;;28.15;17.00;;;;;;;0.41;84.48;101395.69;5073755;28;20039;-66
2022/03/09 05:35:43;;;;;;;29.80;15.15;;;;;;;0.47;84.08;101398.47;5083579;28;20037;-66
2022/03/09 05:38:09;;;;;;;27.77;14.68;;;;;;;0.53;83.37;101406.47;5073320;28;20037;-66
2022/03/09 05:40:34;;;;;;;28.13;14.30;;;;;;;0.53;83.66;101398.69;5054700;28;20055;-66
2022/03/09 05:43:00;;;;;;;36.40;17.55;;;;;;;0.57;83.04;101405.72;5072957;28;20037;-66
2022/03/09 05:45:25;;;;;;;43.00;18.05;;;;;;;0.64;82.75;101407.72;5073388;28;20549;-66
2022/03/09 05:47:51;;;;;;;45.80;18.52;;;;;;;0.72;82.54;101405.41;5073094;28;20486;-66
2022/03/09 05:50:17;;;;;;;47.67;19.08;;;;;;;0.84;81.39;101418.75;5073655;28;20028;-66
2022/03/09 05:52:42;;;;;;;39.75;17.45;;;;;;;0.86;81.23;101405.84;5052232;28;20036;-66
2022/03/09 05:55:08;;;;;;;31.33;14.75;;;;;;;0.87;81.06;101417.97;5068679;28;20032;-66
2022/03/09 05:57:34;;;;;;;30.58;14.43;;;;;;;0.97;80.30;101420.03;5072413;28;20036;-66
2022/03/09 06:00:01;;;;;;;24.85;13.05;;;;;;;0.97;79.94;101400.22;5072983;28;20369;-65
2022/03/09 06:02:27;;;;;;;31.90;15.40;;;;;;;1.06;80.09;101416.88;5071469;28;20035;-65
2022/03/09 06:04:52;;;;;;;31.98;15.00;;;;;;;1.18;79.72;101414.69;5073875;28;20040;-66
2022/03/09 06:07:18;;;;;;;37.25;16.85;;;;;;;1.17;79.92;101415.53;5072554;28;20384;-66
2022/03/09 06:09:44;;;;;;;27.13;13.93;;;;;;;1.29;79.30;101418.53;5072507;28;20035;-66
2022/03/09 06:12:09;;;;;;;27.73;15.63;;;;;;;1.40;78.30;101411.09;5072998;28;20468;-67
2022/03/09 06:14:34;;;;;;;29.67;15.43;;;;;;;1.42;78.16;101412.91;5067188;28;20040;-66
2022/03/09 06:17:00;;;;;;;28.98;15.52;;;;;;;1.47;78.25;101418.22;5053622;28;20036;-66
2022/03/09 06:19:25;;;;;;;28.15;16.02;;;;;;;1.40;78.39;101422.34;5052373;28;20036;-66
2022/03/09 06:21:51;;;;;;;25.98;14.68;;;;;;;1.52;78.06;101423.53;5059551;28;20071;-66
2022/03/09 06:24:18;;;;;;;26.35;13.93;;;;;;;1.58;77.75;101423.75;5064864;28;20037;-65
2022/03/09 06:26:44;;;;;;;21.40;12.23;;;;;;;1.68;77.26;101424.09;5067379;28;20040;-66
2022/03/09 06:29:11;;;;;;;25.77;13.68;;;;;;;1.79;76.71;101423.53;5070818;28;20025;-66
2022/03/09 06:31:36;;;;;;;25.92;13.75;;;;;;;1.83;76.52;101418.47;5072579;28;20024;-66
2022/03/09 06:34:02;;;;;;;24.85;14.00;;;;;;;1.90;75.92;101419.56;5072706;28;20124;-66
2022/03/09 06:36:27;;;;;;;24.08;13.60;;;;;;;2.02;75.83;101429.41;5071622;28;20491;-66
2022/03/09 06:38:54;;;;;;;26.08;13.20;;;;;;;2.14;75.23;101427.19;5073282;28;20058;-66
2022/03/09 06:41:19;;;;;;;26.63;13.50;;;;;;;2.20;74.88;101436.03;5071934;28;20032;-66
2022/03/09 06:43:45;;;;;;;33.03;16.02;;;;;;;2.27;74.69;101433.59;5073332;28;20037;-66
2022/03/09 06:46:11;;;;;;;27.08;14.10;;;;;;;2.36;74.02;101436.47;5073230;28;20385;-66
2022/03/09 06:48:37;;;;;;;29.98;14.23;;;;;;;2.46;73.79;101435.88;5071647;28;20021;-67
2022/03/09 06:51:02;;;;;;;32.63;14.77;;;;;;;2.53;73.34;101436.94;5073368;28;20075;-66
2022/03/09 06:53:28;;;;;;;26.35;13.68;;;;;;;2.61;73.37;101441.50;5071568;28;20029;-66
2022/03/09 06:55:53;;;;;;;29.42;14.73;;;;;;;2.67;73.17;101436.50;5071024;28;20036;-67
2022/03/09 06:58:19;;;;;;;26.55;13.75;;;;;;;2.81;72.69;101446.34;5068718;28;20032;-67
2022/03/09 07:00:44;;;;;;;31.95;15.15;;;;;;;2.88;72.52;101448.28;5073183;28;20045;-67
2022/03/09 07:03:10;;;;;;;28.10;15.13;;;;;;;3.01;71.66;101450.34;5073463;28;20089;-67
2022/03/09 07:05:35;;;;;;;26.25;14.63;;;;;;;3.09;71.36;101448.84;5072947;28;20112;-66
2022/03/09 07:08:01;;;;;;;23.65;12.77;;;;;;;3.20;71.17;101441.34;5073076;28;20411;-67
2022/03/09 07:10:27;;;;;;;26.08;14.80;;;;;;;3.31;70.54;101446.78;5071264;28;20032;-67
2022/03/09 07:12:53;;;;;;;31.90;16.02;;;;;;;3.32;70.42;101452.03;5070608;28;20040;-67
2022/03/09 07:15:19;;;;;;;25.75;13.60;;;;;;;3.43;69.90;101452.25;5069498;28;20032;-67
2022/03/09 07:17:46;;;;;;;22.15;13.10;;;;;;;3.51;69.45;101453.38;5058611;28;20041;-67
2022/03/09 07:20:13;;;;;;;19.73;11.25;;;;;;;3.62;69.03;101451.00;5063902;28;20094;-67
2022/03/09 07:22:40;;;;;;;19.38;10.38;;;;;;;3.74;68.51;101455.59;5070399;28;20028;-66
2022/03/09 07:25:06;;;;;;;19.92;10.32;;;;;;;3.82;67.82;101462.72;5070352;28;20036;-66
2022/03/09 07:27:32;;;;;;;18.90;9.98;;;;;;;3.87;67.84;101458.53;5065948;28;20119;-66
2022/03/09 07:29:57;;;;;;;15.77;9.30;;;;;;;3.97;67.34;101459.63;5061957;28;20123;-66
2022/03/09 07:32:23;;;;;;;16.88;9.38;;;;;;;4.09;66.84;101459.00;5075129;28;20067;-66
2022/03/09 07:34:48;;;;;;;16.70;9.23;;;;;;;4.12;66.22;101459.97;5073635;28;20043;-66
2022/03/09 07:37:14;;;;;;;15.57;8.75;;;;;;;4.22;66.19;101463.63;5073663;28;20032;-66
2022/03/09 07:39:39;;;;;;;16.02;9.27;;;;;;;4.24;66.14;101459.34;5057887;28;20037;-67
2022/03/09 07:42:05;;;;;;;15.07;9.13;;;;;;;4.30;65.54;101471.59;5074482;28;20033;-66
2022/03/09 07:44:31;;;;;;;16.35;9.60;;;;;;;4.37;65.40;101456.16;5074476;28;20037;-66
2022/03/09 07:46:57;;;;;;;19.23;10.40;;;;;;;4.50;65.22;101462.47;5074062;28;20480;-66
2022/03/09 07:49:22;;;;;;;16.27;9.48;;;;;;;4.65;64.95;101462.78;5074872;28;20036;-66
2022/03/09 07:51:49;;;;;;;16.55;9.25;;;;;;;4.68;65.06;101451.56;5071134;28;20048;-66
2022/03/09 07:54:16;;;;;;;17.13;8.90;;;;;;;4.76;64.49;101456.94;5068571;28;20064;-66
2022/03/09 07:56:42;;;;;;;16.88;9.20;;;;;;;4.76;63.97;101460.41;5059437;28;20036;-66
2022/03/09 07:59:08;;;;;;;17.20;9.43;;;;;;;4.84;63.40;101465.75;5074370;28;20486;-64
2022/03/09 08:01:34;;;;;;;17.63;9.32;;;;;;;5.02;63.14;101468.69;5073832;28;20438;-65
2022/03/09 08:04:00;;;;;;;22.45;12.25;;;;;;;5.15;62.58;101469.81;5058529;28;20043;-66
2022/03/09 08:06:25;;;;;;;14.45;7.93;;;;;;;5.26;61.52;101469.97;5074230;28;20029;-66
2022/03/09 08:08:51;;;;;;;14.18;8.20;;;;;;;5.38;61.09;101470.19;5073415;28;20032;-65
2022/03/09 08:11:16;;;;;;;15.63;7.72;;;;;;;5.46;60.44;101479.00;5071750;28;20041;-66
2022/03/09 08:13:41;;;;;;;13.27;8.10;;;;;;;5.59;60.42;101478.38;5074385;28;20044;-66
2022/03/09 08:16:07;;;;;;;16.33;9.48;;;;;;;5.50;60.42;101470.38;5074899;28;20025;-65
2022/03/09 08:18:33;;;;;;;15.57;8.80;;;;;;;5.53;60.18;101477.41;5076090;28;20399;-65
2022/03/09 08:20:59;;;;;;;14.88;9.20;;;;;;;5.55;60.32;101480.91;5073828;28;20032;-66
2022/03/09 08:23:24;;;;;;;15.23;8.65;;;;;;;5.59;60.35;101478.38;5075050;28;20110;-66
2022/03/09 08:25:50;;;;;;;18.92;8.93;;;;;;;5.67;60.42;101478.50;5074856;28;20067;-66
2022/03/09 08:28:17;;;;;;;17.63;9.50;;;;;;;5.82;60.14;101480.44;5073855;28;20024;-66
2022/03/09 08:30:42;;;;;;;13.70;7.88;;;;;;;5.89;59.72;101482.31;5073749;28;20123;-66
2022/03/09 08:33:08;;;;;;;14.98;8.90;;;;;;;5.95;59.70;101472.00;5073938;28;20396;-66
2022/03/09 08:35:33;;;;;;;14.77;8.32;;;;;;;6.10;59.53;101477.47;5075278;28;20040;-66
2022/03/09 08:37:59;;;;;;;13.32;7.78;;;;;;;6.21;58.88;101477.59;5072247;28;20037;-66
2022/03/09 08:40:24;;;;;;;14.55;8.73;;;;;;;6.29;58.96;101481.16;5073576;28;20114;-66
2022/03/09 08:42:50;;;;;;;12.77;8.18;;;;;;;6.24;58.88;101474.16;5074399;28;20047;-67
2022/03/09 08:45:15;;;;;;;15.45;9.13;;;;;;;6.30;58.33;101477.69;5074306;28;20057;-66
2022/03/09 08:47:41;;;;;;;13.13;8.52;;;;;;;6.43;58.57;101473.53;5074606;28;20052;-66
2022/03/09 08:50:07;;;;;;;16.75;9.48;;;;;;;6.47;58.44;101483.16;5074429;28;20050;-66
2022/03/09 08:52:33;;;;;;;13.38;7.90;;;;;;;6.62;58.05;101480.75;5076136;28;20025;-66
2022/03/09 08:54:58;;;;;;;14.07;8.00;;;;;;;6.74;57.78;101486.94;5074383;28;20046;-67
2022/03/09 08:57:24;;;;;;;15.65;9.10;;;;;;;6.61;57.91;101492.03;5074242;28;20415;-66
2022/03/09 08:59:49;;;;;;;16.70;8.95;;;;;;;6.68;57.78;101492.13;5073431;28;20056;-66
2022/03/09 09:02:15;;;;;;;15.55;8.57;;;;;;;6.58;57.82;101494.63;5074456;28;20031;-66
2022/03/09 09:04:41;;;;;;;14.88;8.10;;;;;;;6.68;57.72;101489.50;5073271;28;20032;-67
2022/03/09 09:07:07;;;;;;;13.07;7.80;;;;;;;6.76;57.59;101501.78;5072155;28;20070;-66
2022/03/09 09:09:33;;;;;;;11.90;7.22;;;;;;;6.81;57.54;101494.00;5074159;28;20108;-66
2022/03/09 09:12:01;;;;;;;14.90;8.02;;;;;;;6.90;57.31;101494.09;5071553;28;20025;-66
2022/03/09 09:14:27;;;;;;;13.73;6.90;;;;;;;6.88;56.87;101495.81;5074356;28;20032;-66
2022/03/09 09:16:52;;;;;;;12.25;6.55;;;;;;;6.92;56.98;101497.63;5072856;28;20449;-66
2022/03/09 09:19:18;;;;;;;14.40;6.78;;;;;;;6.96;57.11;101483.72;5072340;28;20032;-66
2022/03/09 09:21:44;;;;;;;12.75;7.10;;;;;;;6.95;57.13;101491.56;5073231;28;20533;-66
2022/03/09 09:24:10;;;;;;;13.55;6.43;;;;;;;7.16;56.54;101481.31;5070979;28;20373;-66
2022/03/09 09:26:35;;;;;;;12.30;6.30;;;;;;;7.16;55.95;101479.56;5073542;28;20047;-66
2022/03/09 09:29:01;;;;;;;13.15;6.07;;;;;;;7.19;55.42;101485.72;5073470;28;20117;-66
2022/03/09 09:31:27;;;;;;;10.18;5.75;;;;;;;7.19;55.33;101483.09;5106569;28;20067;-66
2022/03/09 09:33:52;;;;;;;10.95;4.65;;;;;;;7.16;54.82;101494.38;5073455;28;20387;-66
2022/03/09 09:36:17;;;;;;;9.88;5.22;;;;;;;7.26;55.00;101487.50;5073316;28;20032;-65
2022/03/09 09:38:43;;;;;;;8.18;5.05;;;;;;;7.37;54.66;101489.34;5072322;28;20040;-66
2022/03/09 09:41:15;;;;;;;11.27;5.97;;;;;;;7.37;53.86;101502.41;5072839;28;20048;-65
2022/03/09 09:43:42;;;;;;;18.35;10.40;;;;;;;7.44;54.11;101495.53;5072856;28;20048;-66
2022/03/09 09:46:11;;;;;;;13.40;7.70;;;;;;;7.57;54.02;101499.97;5072072;28;20040;-65
2022/03/09 09:48:37;;;;;;;11.00;6.00;;;;;;;7.56;54.09;101503.47;5071957;28;20427;-66
2022/03/09 09:51:02;;;;;;;9.55;4.93;;;;;;;7.56;53.93;101502.59;5072438;28;20053;-66
2022/03/09 09:53:30;;;;;;;8.43;5.25;;;;;;;7.61;54.20;101511.34;5072834;28;20043;-66
2022/03/09 09:55:58;;;;;;;11.00;6.65;;;;;;;7.70;54.11;101508.84;5072039;28;20028;-66
2022/03/09 09:58:23;;;;;;;11.25;5.85;;;;;;;7.74;53.70;101509.72;5072131;28;20112;-66
2022/03/09 10:00:49;;;;;;;9.88;4.70;;;;;;;7.76;53.64;101515.84;5073404;28;20107;-67
2022/03/09 10:03:14;;;;;;;13.40;5.75;;;;;;;7.69;53.34;101514.03;5072491;28;20029;-66
2022/03/09 10:05:40;;;;;;;8.77;5.10;;;;;;;7.72;53.19;101514.06;5073491;28;20457;-67
2022/03/09 10:08:08;;;;;;;11.32;5.07;;;;;;;7.86;53.10;101507.22;5071392;28;20522;-67
2022/03/09 10:10:35;;;;;;;9.32;5.03;;;;;;;7.86;53.25;101510.72;5070199;28;20479;-67
2022/03/09 10:13:16;;;;;;;7.95;5.10;;;;;;;7.91;52.73;101505.50;5071368;28;20442;-66
2022/03/09 10:15:46;;;;;;;9.85;5.10;;;;;;;7.97;52.86;101508.13;5072052;28;20040;-66
2022/03/09 10:18:15;;;;;;;9.65;4.85;;;;;;;8.10;52.72;101511.75;5070869;28;20033;-66
2022/03/09 10:20:40;;;;;;;8.32;5.30;;;;;;;7.99;52.88;101514.28;5071854;28;20543;-66
2022/03/09 10:23:08;;;;;;;10.90;5.43;;;;;;;8.17;52.80;101513.50;5070386;28;20119;-67
2022/03/09 10:25:34;;;;;;;12.02;5.63;;;;;;;8.23;52.72;101516.19;5072831;28;20487;-66
2022/03/09 10:28:06;;;;;;;10.43;5.07;;;;;;;8.25;52.29;101517.03;5073103;28;20045;-66
2022/03/09 10:30:33;;;;;;;9.45;5.43;;;;;;;8.39;52.58;101518.03;5071157;28;20028;-67
2022/03/09 10:33:07;;;;;;;11.77;5.55;;;;;;;8.42;52.03;101514.59;5071607;28;20127;-66
2022/03/09 10:35:32;;;;;;;9.60;5.05;;;;;;;8.56;52.27;101499.78;5071245;28;20032;-66
2022/03/09 10:38:07;;;;;;;10.60;4.93;;;;;;;8.62;51.78;101512.94;5073187;28;20094;-66
2022/03/09 10:40:40;;;;;;;8.55;5.22;;;;;;;8.77;51.93;101511.22;5071823;28;20551;-66
2022/03/09 10:43:25;;;;;;;11.32;5.57;;;;;;;8.74;51.64;101511.22;5071870;28;20028;-66
2022/03/09 10:46:09;;;;;;;10.35;5.43;;;;;;;8.61;52.30;101529.50;5073777;28;20124;-67
2022/03/09 10:48:48;;;;;;;9.50;5.93;;;;;;;8.73;52.04;101515.56;5071752;28;20380;-66
2022/03/09 10:51:26;;;;;;;9.65;5.20;;;;;;;8.80;52.26;101517.34;5072966;28;20082;-67
2022/03/09 10:53:52;;;;;;;10.95;5.50;;;;;;;9.06;51.66;101520.06;5071979;28;20106;-67
2022/03/09 10:56:21;;;;;;;9.93;5.40;;;;;;;9.05;51.64;101513.06;5053742;28;20497;-66
2022/03/09 10:58:46;;;;;;;11.55;5.50;;;;;;;9.21;51.68;101513.09;5074799;28;20040;-67
2022/03/09 11:01:17;;;;;;;10.80;5.30;;;;;;;9.11;51.29;101522.69;5076464;28;20044;-66
2022/03/09 11:03:43;;;;;;;14.82;6.60;;;;;;;9.19;51.92;101525.34;5074599;28;20131;-66
2022/03/09 11:06:09;;;;;;;8.90;4.97;;;;;;;9.30;51.80;101526.25;5075402;28;20025;-66
2022/03/09 11:08:36;;;;;;;8.40;4.70;;;;;;;9.48;51.61;101513.13;5054452;28;20032;-66
2022/03/09 11:11:04;;;;;;;12.80;4.68;;;;;;;9.57;50.73;101507.88;5038136;28;20037;-65
2022/03/09 11:13:32;;;;;;;7.28;4.05;;;;;;;9.52;50.41;101514.88;5073451;28;20044;-66
2022/03/09 11:15:58;;;;;;;9.73;5.35;;;;;;;9.54;50.83;101514.91;5076496;28;20472;-66
2022/03/09 11:18:25;;;;;;;11.18;5.40;;;;;;;9.46;50.90;101514.91;5073973;28;20043;-66
2022/03/09 11:20:54;;;;;;;9.23;4.50;;;;;;;9.58;50.88;101509.66;5074944;28;20035;-66